Time;durP1;ratioP1;P1;durP2;ratioP2;P2;SDS_P1;SDS_P2;PMS_P1;PMS_P2;Temp;Humidity;BMP_temperature;BMP_pressure;BME280_temperature;BME280_humidity;BME280_pressure;Samples;Min_cycle;Max_cycle;Signal;HPM_P1;HPM_P2
2024/04/12 00:01:08;;;;;;;9.70;3.40;;;12.00;99.90;;;;;;5412844;26;20346;-46
2024/04/12 00:03:36;;;;;;;7.82;3.45;;;11.90;99.90;;;;;;5413665;26;20003;-49
2024/04/12 00:06:05;;;;;;;8.18;3.55;;;11.90;99.90;;;;;;5413828;26;20007;-45
2024/04/12 00:08:32;;;;;;;7.57;3.00;;;11.90;99.90;;;;;;5383516;26;20016;-45
2024/04/12 00:11:03;;;;;;;13.38;3.22;;;11.80;99.90;;;;;;5378147;26;20007;-45
2024/04/12 00:13:31;;;;;;;12.27;4.45;;;11.80;99.90;;;;;;5378029;26;20000;-47
2024/04/12 00:16:01;;;;;;;5.22;3.35;;;11.80;99.90;;;;;;5378062;26;20074;-45
2024/04/12 00:18:33;;;;;;;17.63;4.15;;;11.90;99.90;;;;;;5378031;26;20074;-50
2024/04/12 00:21:01;;;;;;;7.45;3.33;;;11.80;99.90;;;;;;5377896;26;20029;-46
2024/04/12 00:23:30;;;;;;;4.85;2.95;;;11.80;99.90;;;;;;5377909;26;20347;-46
2024/04/12 00:26:00;;;;;;;8.55;3.65;;;11.80;99.90;;;;;;5378820;26;20011;-47
2024/04/12 00:28:32;;;;;;;12.13;3.30;;;11.70;99.90;;;;;;5379142;26;20012;-46
2024/04/12 00:31:01;;;;;;;8.48;3.20;;;11.70;99.90;;;;;;5381464;26;20008;-45
2024/04/12 00:33:31;;;;;;;4.88;3.15;;;11.60;99.90;;;;;;5381624;26;20481;-46
2024/04/12 00:36:13;;;;;;;8.57;3.25;;;11.60;99.90;;;;;;5381877;26;20004;-49
2024/04/12 00:38:43;;;;;;;5.95;3.28;;;11.60;99.90;;;;;;5379758;26;20006;-46
2024/04/12 00:41:19;;;;;;;9.18;3.15;;;11.60;99.90;;;;;;5381283;26;20015;-49
2024/04/12 00:43:51;;;;;;;6.00;3.28;;;11.50;99.90;;;;;;5381167;26;20073;-46
2024/04/12 00:46:23;;;;;;;5.95;3.80;;;11.50;99.90;;;;;;5381160;26;20000;-43
2024/04/12 00:48:51;;;;;;;5.55;3.50;;;11.40;99.90;;;;;;5380888;26;19996;-43
2024/04/12 00:51:18;;;;;;;5.18;2.78;;;11.40;99.90;;;;;;5381449;26;20281;-47
2024/04/12 00:53:46;;;;;;;8.88;4.45;;;11.40;99.90;;;;;;5379344;26;20008;-48
2024/04/12 00:56:13;;;;;;;9.55;3.78;;;11.40;99.90;;;;;;5381421;26;20000;-50
2024/04/12 00:58:41;;;;;;;8.52;3.28;;;11.40;99.90;;;;;;5381301;26;20014;-48
2024/04/12 01:01:17;;;;;;;4.53;2.97;;;11.30;99.90;;;;;;5380678;26;20038;-46
2024/04/12 01:03:46;;;;;;;;;;;11.40;99.90;;;;;;5381697;26;20077;-46
2024/04/12 01:06:16;;;;;;;8.95;3.17;;;11.30;99.90;;;;;;5381006;26;19933;-51
2024/04/12 01:08:45;;;;;;;7.32;3.30;;;11.30;99.90;;;;;;5380833;26;20090;-51
2024/04/12 01:11:15;;;;;;;6.57;3.20;;;11.20;99.90;;;;;;5380840;26;20004;-47
2024/04/12 01:13:40;;;;;;;7.07;3.67;;;11.20;99.90;;;;;;5379050;26;20010;-49
2024/04/12 01:16:06;;;;;;;5.57;3.50;;;11.20;99.90;;;;;;5381158;26;20000;-46
2024/04/12 01:18:35;;;;;;;7.15;3.00;;;11.20;99.90;;;;;;5380705;26;20004;-47
2024/04/12 01:21:07;;;;;;;5.22;3.17;;;11.20;99.90;;;;;;5378637;26;19992;-48
2024/04/12 01:23:33;;;;;;;4.63;2.95;;;11.20;99.90;;;;;;5379326;26;20004;-46
2024/04/12 01:25:59;;;;;;;10.30;3.10;;;11.20;99.90;;;;;;5380765;26;20073;-48
2024/04/12 01:28:26;;;;;;;7.53;3.13;;;11.10;99.90;;;;;;5378459;26;20011;-53
2024/04/12 01:30:59;;;;;;;8.35;3.22;;;11.20;99.90;;;;;;5380211;26;20042;-47
2024/04/12 01:33:25;;;;;;;5.00;3.40;;;11.10;99.90;;;;;;5380572;26;20359;-50
2024/04/12 01:35:52;;;;;;;5.88;3.17;;;11.20;99.90;;;;;;5380976;26;20011;-50
2024/04/12 01:38:20;;;;;;;11.15;4.30;;;11.10;99.90;;;;;;5378339;26;20000;-48
2024/04/12 01:40:46;;;;;;;4.65;3.67;;;11.10;99.90;;;;;;5380087;26;19996;-50
2024/04/12 01:43:18;;;;;;;6.20;3.85;;;11.10;99.90;;;;;;5380391;26;19996;-46
2024/04/12 01:45:44;;;;;;;5.53;3.13;;;11.10;99.90;;;;;;5380481;26;20030;-49
2024/04/12 01:48:10;;;;;;;5.55;3.30;;;11.10;99.90;;;;;;5380759;26;19996;-47
2024/04/12 01:50:40;;;;;;;10.65;3.38;;;11.10;99.90;;;;;;5380738;26;20000;-47
2024/04/12 01:53:09;;;;;;;8.27;3.00;;;11.00;99.90;;;;;;5381106;26;20455;-48
2024/04/12 01:55:39;;;;;;;7.43;3.53;;;11.10;99.90;;;;;;5380742;26;20040;-46
2024/04/12 01:58:04;;;;;;;5.25;3.40;;;11.00;99.90;;;;;;5380634;26;20014;-49
2024/04/12 02:00:32;;;;;;;12.95;3.85;;;11.00;99.90;;;;;;5380718;26;20001;-49
2024/04/12 02:02:59;;;;;;;7.13;3.70;;;11.00;99.90;;;;;;5378980;26;20029;-47
2024/04/12 02:05:44;;;;;;;12.52;3.92;;;10.90;99.90;;;;;;5381021;26;20303;-46
2024/04/12 02:08:16;;;;;;;14.90;3.43;;;10.90;99.90;;;;;;5380952;26;20032;-46
2024/04/12 02:10:44;;;;;;;7.60;3.35;;;10.90;99.90;;;;;;5378757;26;20080;-48
2024/04/12 02:13:16;;;;;;;6.70;3.80;;;10.80;99.90;;;;;;5380650;26;20000;-46
2024/04/12 02:15:52;;;;;;;8.93;3.50;;;10.80;99.90;;;;;;5380775;26;20480;-46
2024/04/12 02:18:21;;;;;;;9.30;3.28;;;10.70;99.90;;;;;;5381394;26;20033;-46
2024/04/12 02:20:49;;;;;;;18.65;4.13;;;10.80;99.90;;;;;;5380870;26;20074;-47
2024/04/12 02:23:14;;;;;;;4.50;2.70;;;10.70;99.90;;;;;;5380971;26;20011;-48
2024/04/12 02:25:41;;;;;;;8.45;3.60;;;10.70;99.90;;;;;;5378813;26;20348;-47
2024/04/12 02:28:11;;;;;;;7.20;3.65;;;10.60;99.90;;;;;;5380350;26;20011;-47
2024/04/12 02:30:45;;;;;;;5.88;3.53;;;10.60;99.90;;;;;;5380344;26;20381;-52
2024/04/12 02:33:16;;;;;;;7.35;3.78;;;10.50;99.90;;;;;;5380564;26;19996;-51
2024/04/12 02:35:42;;;;;;;4.45;3.40;;;10.50;99.90;;;;;;5379942;26;20008;-50
2024/04/12 02:38:15;;;;;;;5.05;3.30;;;10.50;99.90;;;;;;5377964;26;19997;-48
2024/04/12 02:40:45;;;;;;;6.65;4.35;;;10.40;99.90;;;;;;5379909;26;19996;-46
2024/04/12 02:43:15;;;;;;;5.45;3.03;;;10.40;99.90;;;;;;5379781;26;20070;-47
2024/04/12 02:45:55;;;;;;;13.13;4.25;;;10.40;99.90;;;;;;5379667;26;19997;-47
2024/04/12 02:48:21;;;;;;;7.80;4.15;;;10.40;99.90;;;;;;5378789;26;19996;-47
2024/04/12 02:50:54;;;;;;;5.05;3.67;;;10.40;99.90;;;;;;5379412;26;20000;-45
2024/04/12 02:53:24;;;;;;;6.95;3.40;;;10.40;99.90;;;;;;5379722;26;20464;-43
2024/04/12 02:56:09;;;;;;;4.15;3.38;;;10.40;99.90;;;;;;5379660;26;19996;-47
2024/04/12 02:58:39;;;;;;;11.60;4.38;;;10.40;99.90;;;;;;5379367;26;20476;-43
2024/04/12 03:01:13;;;;;;;6.00;3.78;;;10.40;99.90;;;;;;5378932;26;20070;-46
2024/04/12 03:03:45;;;;;;;6.03;3.70;;;10.40;99.90;;;;;;5378941;26;20000;-46
2024/04/12 03:06:16;;;;;;;9.18;3.33;;;10.40;99.90;;;;;;5377806;26;20478;-50
2024/04/12 03:08:44;;;;;;;10.35;4.53;;;10.50;99.90;;;;;;5379352;26;19996;-47
2024/04/12 03:11:14;;;;;;;10.18;4.82;;;10.50;99.90;;;;;;5378096;26;19992;-46
2024/04/12 03:13:44;;;;;;;9.85;4.90;;;10.50;99.90;;;;;;5379459;26;20070;-45
2024/04/12 03:16:13;;;;;;;13.43;4.25;;;10.50;99.90;;;;;;5379265;26;19997;-47
2024/04/12 03:18:40;;;;;;;8.93;4.28;;;10.50;99.90;;;;;;5379062;26;20008;-48
2024/04/12 03:21:06;;;;;;;9.18;3.67;;;10.50;99.90;;;;;;5376918;26;20009;-48
2024/04/12 03:23:31;;;;;;;8.00;3.47;;;10.50;99.90;;;;;;5379157;26;19996;-46
2024/04/12 03:25:57;;;;;;;4.03;3.10;;;10.40;99.90;;;;;;5377480;26;20000;-52
2024/04/12 03:28:23;;;;;;;5.95;3.30;;;10.40;99.90;;;;;;5378595;26;20540;-46
2024/04/12 03:30:50;;;;;;;8.40;3.20;;;10.30;99.90;;;;;;5378440;26;19996;-48
2024/04/12 03:33:16;;;;;;;4.45;2.90;;;10.30;99.90;;;;;;5379059;26;20007;-46
2024/04/12 03:35:42;;;;;;;9.50;3.60;;;10.30;99.90;;;;;;5379098;26;20028;-46
2024/04/12 03:38:28;;;;;;;6.20;3.58;;;10.20;99.90;;;;;;5378906;26;20070;-47
2024/04/12 03:41:00;;;;;;;5.47;3.83;;;10.30;99.90;;;;;;5378704;26;20503;-47
2024/04/12 03:43:27;;;;;;;4.32;3.78;;;10.20;99.90;;;;;;5376926;26;20119;-47
2024/04/12 03:45:58;;;;;;;11.20;5.22;;;10.20;99.90;;;;;;5378677;26;20400;-46
2024/04/12 03:48:24;;;;;;;7.82;4.78;;;10.20;99.90;;;;;;5378620;26;20030;-46
2024/04/12 03:50:59;;;;;;;10.65;4.63;;;10.20;99.90;;;;;;5378411;26;20340;-44
2024/04/12 03:53:30;;;;;;;9.10;3.78;;;10.20;99.90;;;;;;5378680;26;20004;-43
2024/04/12 03:55:55;;;;;;;6.38;3.67;;;10.20;99.90;;;;;;5376701;26;19997;-45
2024/04/12 03:58:22;;;;;;;9.48;4.72;;;10.20;99.90;;;;;;5376457;26;20011;-43
2024/04/12 04:00:48;;;;;;;10.98;4.28;;;10.10;99.90;;;;;;5378938;26;19996;-43
2024/04/12 04:03:32;;;;;;;11.25;5.03;;;10.10;99.90;;;;;;5381926;26;20089;-44
2024/04/12 04:05:59;;;;;;;12.23;5.40;;;10.00;99.90;;;;;;5380483;26;20412;-43
2024/04/12 04:08:24;;;;;;;11.77;5.13;;;10.00;99.90;;;;;;5380032;26;20499;-43
2024/04/12 04:10:50;;;;;;;8.75;4.28;;;10.10;99.90;;;;;;5381613;26;20004;-44
2024/04/12 04:13:18;;;;;;;8.35;4.85;;;10.10;99.90;;;;;;5380031;26;20009;-44
2024/04/12 04:15:50;;;;;;;6.90;4.07;;;10.10;99.90;;;;;;5381934;26;19996;-44
2024/04/12 04:18:17;;;;;;;11.32;5.03;;;10.00;99.90;;;;;;5381657;26;20549;-47
2024/04/12 04:20:43;;;;;;;8.32;3.95;;;10.00;99.90;;;;;;5381387;26;20011;-51
2024/04/12 04:23:09;;;;;;;6.95;4.32;;;10.00;99.90;;;;;;5379935;26;20018;-44
2024/04/12 04:25:35;;;;;;;7.00;3.95;;;9.90;99.90;;;;;;5381517;26;19992;-45
2024/04/12 04:28:02;;;;;;;5.78;3.70;;;9.90;99.90;;;;;;5381008;26;20011;-47
2024/04/12 04:30:28;;;;;;;8.63;3.80;;;9.80;99.90;;;;;;5381231;26;20480;-45
2024/04/12 04:32:54;;;;;;;10.20;5.28;;;9.70;99.90;;;;;;5381678;26;20047;-45
2024/04/12 04:35:26;;;;;;;9.38;5.15;;;9.70;99.90;;;;;;5381472;26;20356;-44
2024/04/12 04:37:52;;;;;;;7.32;4.85;;;9.70;99.90;;;;;;5382119;26;20000;-45
2024/04/12 04:40:18;;;;;;;10.18;5.30;;;9.70;99.90;;;;;;5381182;26;20004;-44
2024/04/12 04:42:45;;;;;;;10.60;5.65;;;9.70;99.90;;;;;;5381389;26;19996;-49
2024/04/12 04:45:18;;;;;;;4.97;4.05;;;9.70;99.90;;;;;;5381309;26;20000;-46
2024/04/12 04:47:44;;;;;;;13.15;4.90;;;9.60;99.90;;;;;;5381269;26;19997;-45
2024/04/12 04:50:10;;;;;;;6.55;4.53;;;9.60;99.90;;;;;;5379410;26;20117;-45
2024/04/12 04:52:37;;;;;;;7.68;4.80;;;9.70;99.90;;;;;;5381374;26;20004;-45
2024/04/12 04:55:03;;;;;;;9.38;4.25;;;9.70;99.90;;;;;;5381274;26;20007;-46
2024/04/12 04:57:29;;;;;;;7.03;4.97;;;9.70;99.90;;;;;;5381234;26;20028;-45
2024/04/12 05:00:06;;;;;;;9.05;4.43;;;9.70;99.90;;;;;;5381504;26;19996;-45
2024/04/12 05:02:35;;;;;;;14.02;5.28;;;9.80;99.90;;;;;;5381125;26;20379;-44
2024/04/12 05:05:04;;;;;;;6.90;4.90;;;9.80;99.90;;;;;;5381429;26;20416;-51
2024/04/12 05:07:35;;;;;;;8.80;5.07;;;9.90;99.90;;;;;;5381261;26;20007;-47
2024/04/12 05:10:08;;;;;;;7.82;4.72;;;10.00;99.90;;;;;;5380922;26;20000;-44
2024/04/12 05:12:40;;;;;;;10.38;5.13;;;10.10;99.90;;;;;;5380102;26;20004;-46
2024/04/12 05:15:31;;;;;;;6.13;4.07;;;10.20;99.90;;;;;;5381130;26;20081;-46
2024/04/12 05:17:54;;;;;;;7.85;4.45;;;10.10;99.90;;;;;;5380913;26;20023;-45
2024/04/12 05:20:29;;;;;;;13.27;4.97;;;10.10;99.90;;;;;;5380640;26;19992;-44
2024/04/12 05:23:00;;;;;;;10.87;4.23;;;10.10;99.90;;;;;;5381064;26;20421;-46
2024/04/12 05:25:25;;;;;;;6.55;4.75;;;10.10;99.90;;;;;;5380960;26;20068;-45
2024/04/12 05:27:51;;;;;;;6.22;4.00;;;10.20;99.90;;;;;;5380511;26;20085;-48
2024/04/12 05:30:18;;;;;;;6.15;4.28;;;10.30;99.90;;;;;;5380317;26;20331;-46
2024/04/12 05:32:44;;;;;;;7.28;4.53;;;10.60;99.90;;;;;;5380838;26;20000;-46
2024/04/12 05:35:09;;;;;;;7.97;4.30;;;11.00;99.90;;;;;;5380746;26;20394;-46
2024/04/12 05:37:35;;;;;;;7.53;3.88;;;11.30;99.90;;;;;;5380790;26;19996;-44
2024/04/12 05:40:04;;;;;;;6.13;3.80;;;11.50;99.90;;;;;;5380280;26;20000;-47
2024/04/12 05:42:30;;;;;;;8.05;4.15;;;11.70;99.90;;;;;;5380306;26;20077;-53
2024/04/12 05:44:59;;;;;;;12.80;4.45;;;11.90;99.90;;;;;;5380538;26;20000;-50
2024/04/12 05:47:25;;;;;;;10.30;4.43;;;12.10;99.90;;;;;;5380429;26;20006;-45
2024/04/12 05:49:50;;;;;;;6.95;4.43;;;12.20;99.90;;;;;;5379997;26;20000;-50
2024/04/12 05:52:19;;;;;;;7.50;3.80;;;12.30;99.90;;;;;;5380471;26;20006;-50
2024/04/12 05:54:45;;;;;;;8.57;4.15;;;12.40;99.90;;;;;;5380657;26;19996;-46
2024/04/12 05:57:11;;;;;;;9.18;4.03;;;12.70;99.90;;;;;;5419409;20;22058;-52
2024/04/12 05:59:41;;;;;;;6.63;4.30;;;12.80;99.90;;;;;;5488654;26;20009;-51
2024/04/12 06:02:09;;;;;;;9.05;4.07;;;13.00;99.90;;;;;;5490374;26;19998;-54
2024/04/12 06:04:36;;;;;;;7.20;3.85;;;13.30;99.90;;;;;;5489663;26;20001;-55
2024/04/12 06:07:11;;;;;;;9.50;4.68;;;13.50;99.90;;;;;;5489532;26;20009;-54
2024/04/12 06:09:37;;;;;;;8.85;4.03;;;13.60;99.90;;;;;;5488977;26;19993;-52
2024/04/12 06:12:05;;;;;;;9.32;4.55;;;13.70;99.90;;;;;;5487656;26;19998;-53
2024/04/12 06:14:33;;;;;;;5.70;3.72;;;13.90;99.90;;;;;;5487959;26;20005;-54
2024/04/12 06:17:04;;;;;;;15.70;4.22;;;14.20;99.90;;;;;;5487733;26;20038;-53
2024/04/12 06:19:36;;;;;;;10.48;4.22;;;14.60;99.90;;;;;;5489053;26;20005;-52
2024/04/12 06:22:13;;;;;;;9.00;4.57;;;14.90;99.90;;;;;;5489722;26;19998;-54
2024/04/12 06:24:40;;;;;;;6.97;5.03;;;15.20;99.90;;;;;;5488026;26;20345;-50
2024/04/12 06:27:06;;;;;;;11.10;4.47;;;15.30;99.90;;;;;;5489465;26;20009;-50
2024/04/12 06:29:34;;;;;;;10.18;4.50;;;15.40;99.90;;;;;;5488877;26;19998;-52
2024/04/12 06:32:00;;;;;;;6.70;4.35;;;15.60;99.90;;;;;;5489525;26;19998;-54
2024/04/12 06:34:25;;;;;;;13.75;4.30;;;15.70;99.90;;;;;;5489663;26;20349;-54
2024/04/12 06:36:57;;;;;;;7.97;4.93;;;15.90;99.90;;;;;;5487666;26;20039;-55
2024/04/12 06:39:26;;;;;;;7.88;3.92;;;16.20;99.90;;;;;;5485393;26;20022;-53
2024/04/12 06:41:57;;;;;;;7.53;4.18;;;16.60;99.90;;;;;;5478285;26;20003;-56
2024/04/12 06:44:24;;;;;;;7.78;4.53;;;17.00;99.90;;;;;;5451613;26;20093;-53
2024/04/12 06:46:51;;;;;;;16.63;5.35;;;17.40;99.90;;;;;;5473340;26;20404;-55
2024/04/12 06:49:19;;;;;;;7.88;4.97;;;17.90;99.40;;;;;;5474875;26;20345;-53
2024/04/12 06:54:35;;;;;;;16.63;5.47;;;18.40;97.30;;;;;;5481190;26;20051;-56
2024/04/12 06:57:06;;;;;;;7.40;3.65;;;18.90;97.30;;;;;;5470615;26;20472;-50
2024/04/12 06:59:35;;;;;;;6.03;4.38;;;19.90;96.10;;;;;;5488698;26;20017;-55
2024/04/12 07:02:08;;;;;;;12.95;3.75;;;20.50;95.20;;;;;;5489798;26;20079;-53
2024/04/12 07:04:33;;;;;;;9.30;3.75;;;21.40;93.90;;;;;;5490562;26;20441;-54
2024/04/12 07:07:04;;;;;;;9.13;3.88;;;22.00;92.60;;;;;;5489353;26;20091;-52
2024/04/12 07:09:30;;;;;;;6.38;3.58;;;22.40;91.80;;;;;;5486714;26;20002;-55
2024/04/12 07:11:57;;;;;;;10.70;4.00;;;22.90;91.10;;;;;;5488927;26;20005;-49
2024/04/12 07:14:23;;;;;;;7.40;3.65;;;23.70;89.10;;;;;;5485857;26;20009;-54
2024/04/12 07:16:49;;;;;;;7.57;4.05;;;24.00;87.30;;;;;;5485542;26;19994;-55
2024/04/12 07:19:18;;;;;;;9.48;3.28;;;24.20;87.10;;;;;;5487153;26;19994;-52
2024/04/12 07:21:44;;;;;;;6.22;3.55;;;24.60;86.10;;;;;;5464882;26;20345;-51
2024/04/12 07:24:15;;;;;;;6.03;3.00;;;24.90;84.20;;;;;;5484689;26;20017;-52
2024/04/12 07:26:41;;;;;;;5.90;3.35;;;25.40;83.20;;;;;;5486752;26;20005;-46
2024/04/12 07:29:07;;;;;;;8.63;3.17;;;25.70;81.30;;;;;;5483657;26;19998;-51
2024/04/12 07:31:36;;;;;;;8.60;3.83;;;25.60;80.60;;;;;;5487128;26;20435;-51
2024/04/12 07:34:03;;;;;;;5.40;3.50;;;25.90;79.80;;;;;;5486880;26;19998;-51
2024/04/12 07:36:32;;;;;;;6.50;3.45;;;26.20;77.80;;;;;;5476823;26;20011;-52
2024/04/12 07:39:05;;;;;;;10.25;3.30;;;26.30;77.10;;;;;;5453825;26;20342;-50
2024/04/12 07:41:45;;;;;;;5.78;2.47;;;26.00;77.20;;;;;;5454245;26;20018;-50
2024/04/12 07:44:14;;;;;;;6.28;3.20;;;26.10;78.30;;;;;;5454867;26;20010;-49
2024/04/12 07:46:51;;;;;;;8.65;3.05;;;26.40;76.90;;;;;;5454857;26;20412;-50
2024/04/12 07:49:18;;;;;;;8.43;2.95;;;26.80;74.60;;;;;;5488750;26;20017;-47
2024/04/12 07:51:45;;;;;;;8.77;2.80;;;26.80;75.00;;;;;;5490713;26;20410;-52
2024/04/12 07:54:11;;;;;;;5.40;2.63;;;27.20;74.50;;;;;;5491468;26;20010;-53
2024/04/12 07:56:43;;;;;;;6.75;3.00;;;27.30;74.10;;;;;;5476676;26;20002;-51
2024/04/12 07:59:25;;;;;;;8.00;2.80;;;28.00;73.30;;;;;;5465587;26;20023;-52
2024/04/12 08:01:51;;;;;;;4.75;2.45;;;27.60;72.30;;;;;;5485387;26;19999;-52
2024/04/12 08:04:23;;;;;;;7.18;3.30;;;27.80;72.80;;;;;;5489973;26;20496;-51
2024/04/12 08:06:55;;;;;;;7.38;2.90;;;27.70;72.70;;;;;;5478049;26;20009;-53
2024/04/12 08:09:34;;;;;;;6.25;2.33;;;27.70;73.10;;;;;;5467739;26;20152;-58
2024/04/12 08:12:14;;;;;;;8.70;2.67;;;28.00;72.80;;;;;;5471281;26;20009;-57
2024/04/12 08:14:51;;;;;;;5.97;3.00;;;28.20;71.50;;;;;;5467559;26;20002;-55
2024/04/12 08:17:23;;;;;;;7.10;3.40;;;28.00;72.20;;;;;;5470224;26;20407;-54
2024/04/12 08:20:00;;;;;;;4.20;2.33;;;28.20;71.80;;;;;;5492213;26;20432;-56
2024/04/12 08:22:26;;;;;;;8.35;2.85;;;27.60;72.30;;;;;;5491385;26;19994;-57
2024/04/12 08:24:53;;;;;;;8.38;2.30;;;28.00;71.60;;;;;;5478159;26;20339;-56
2024/04/12 08:27:20;;;;;;;5.63;2.45;;;27.80;71.90;;;;;;5486813;26;20074;-55
2024/04/12 08:29:48;;;;;;;5.03;2.45;;;27.60;72.70;;;;;;5465464;26;20014;-52
2024/04/12 08:32:14;;;;;;;5.18;2.25;;;27.70;73.20;;;;;;5484166;26;20372;-48
2024/04/12 08:34:43;;;;;;;5.40;2.17;;;28.40;73.30;;;;;;5455842;26;20003;-56
2024/04/12 08:37:13;;;;;;;6.90;2.45;;;28.50;71.90;;;;;;5456894;26;20006;-51
2024/04/12 08:39:43;;;;;;;4.57;1.83;;;28.50;72.50;;;;;;5480494;26;20013;-54
2024/04/12 08:42:15;;;;;;;3.15;1.80;;;28.50;72.60;;;;;;5461822;26;19998;-54
2024/04/12 08:44:42;;;;;;;6.22;1.90;;;29.20;72.00;;;;;;5457937;26;20020;-58
2024/04/12 08:50:07;;;;;;;4.43;2.42;;;29.30;72.10;;;;;;5457387;26;19995;-53
2024/04/12 08:52:44;;;;;;;5.05;1.80;;;29.10;71.90;;;;;;5475492;26;20010;-56
2024/04/12 08:55:13;;;;;;;3.63;1.90;;;27.80;72.70;;;;;;5451585;26;20472;-51
2024/04/12 08:57:44;;;;;;;7.28;2.15;;;28.50;73.00;;;;;;5451505;26;20009;-52
2024/04/12 09:00:18;;;;;;;5.63;3.42;;;29.00;72.40;;;;;;5452516;26;20461;-55
2024/04/12 09:02:50;;;;;;;8.63;1.98;;;29.10;72.30;;;;;;5484587;26;20013;-50
2024/04/12 09:05:22;;;;;;;8.40;1.98;;;29.00;71.70;;;;;;5489201;26;20008;-50
2024/04/12 09:07:52;;;;;;;2.92;1.73;;;29.50;70.40;;;;;;5464409;26;20336;-52
2024/04/12 09:10:19;;;;;;;6.47;1.67;;;29.80;71.60;;;;;;5454657;26;20006;-57
2024/04/12 09:12:46;;;;;;;8.20;2.13;;;29.40;72.10;;;;;;5473451;26;20002;-53
2024/04/12 09:15:23;;;;;;;5.00;2.00;;;28.20;72.20;;;;;;5476010;26;20002;-49
2024/04/12 09:18:02;;;;;;;4.22;1.70;;;27.00;74.80;;;;;;5455003;26;20040;-51
2024/04/12 09:20:35;;;;;;;5.40;1.90;;;26.30;77.40;;;;;;5465398;26;20453;-48
2024/04/12 09:23:14;;;;;;;5.50;2.08;;;26.00;78.20;;;;;;5476629;26;19998;-52
2024/04/12 09:25:56;;;;;;;8.85;2.28;;;25.00;80.00;;;;;;5483913;26;19994;-50
2024/04/12 09:28:26;;;;;;;7.10;2.40;;;24.20;82.60;;;;;;5451846;26;19998;-48
2024/04/12 09:33:38;;;;;;;3.67;1.75;;;23.60;86.10;;;;;;5452890;26;20009;-49
2024/04/12 09:36:06;;;;;;;2.75;1.70;;;23.20;87.70;;;;;;5453257;26;19999;-55
2024/04/12 09:38:33;;;;;;;5.15;1.67;;;23.20;88.60;;;;;;5468273;26;19994;-50
2024/04/12 09:41:12;;;;;;;5.45;2.47;;;23.30;89.10;;;;;;5489448;26;19990;-46
2024/04/12 09:43:47;;;;;;;5.32;2.13;;;23.10;90.10;;;;;;5489217;26;20034;-49
2024/04/12 09:46:17;;;;;;;5.70;2.10;;;23.00;90.50;;;;;;5489949;26;19994;-50
2024/04/12 10:37:23;;;;;;;7.60;2.22;;;22.40;92.00;;;;;;5471430;26;20012;-56
2024/04/12 10:38:58;;;;;;;3.17;1.42;;;20.30;99.50;;;;;;5487701;26;20008;-52
2024/04/12 10:41:26;;;;;;;2.33;1.15;;;20.20;99.70;;;;;;5487708;26;20005;-51
2024/04/12 10:43:55;;;;;;;2.28;1.20;;;20.10;99.90;;;;;;5487645;26;20026;-52
2024/04/12 10:46:20;;;;;;;4.00;1.08;;;19.90;99.90;;;;;;5488966;26;20382;-47
2024/04/12 10:48:46;;;;;;;5.47;1.52;;;19.80;99.90;;;;;;5487341;26;19998;-50
2024/04/12 10:51:17;;;;;;;1.55;1.25;;;19.70;99.90;;;;;;5468785;26;20013;-53
2024/04/12 10:53:43;;;;;;;17.20;13.18;;;19.50;99.90;;;;;;5450819;26;20354;-55
2024/04/12 10:56:18;;;;;;;5.85;2.47;;;19.80;99.90;;;;;;5450681;26;19994;-52
2024/04/12 10:58:51;;;;;;;13.73;7.80;;;19.60;99.90;;;;;;5449561;26;20009;-54
2024/04/12 11:01:18;;;;;;;1.95;1.77;;;19.40;99.90;;;;;;5450593;26;19995;-51
2024/04/12 11:03:56;;;;;;;1.83;0.98;;;19.20;99.90;;;;;;5448687;26;20063;-53
2024/04/12 11:06:34;;;;;;;1.35;0.88;;;19.20;99.90;;;;;;5450765;26;20006;-49
2024/04/12 11:09:04;;;;;;;1.77;1.13;;;19.20;99.90;;;;;;5448796;26;20532;-51
2024/04/12 11:11:33;;;;;;;1.13;0.90;;;19.20;99.90;;;;;;5450320;26;19995;-50
2024/04/12 11:14:00;;;;;;;7.53;1.25;;;19.00;99.90;;;;;;5450476;26;19999;-52
2024/04/12 11:33:04;;;;;;;1.48;0.80;;;19.50;99.90;;;;;;5484928;26;20008;-49
2024/04/12 11:35:30;;;;;;;0.60;0.60;;;19.40;99.90;;;;;;5485790;26;20002;-54
2024/04/12 11:37:56;;;;;;;0.80;0.77;;;19.60;99.90;;;;;;5484943;26;20020;-50
2024/04/12 11:40:21;;;;;;;1.05;0.82;;;19.60;99.90;;;;;;5486478;26;19998;-51
2024/04/12 11:42:49;;;;;;;0.57;0.57;;;19.70;99.90;;;;;;5486746;26;20465;-50
2024/04/12 11:45:17;;;;;;;2.00;0.60;;;19.90;99.90;;;;;;5486693;26;19998;-53
2024/04/12 11:47:44;;;;;;;1.02;0.60;;;20.00;99.90;;;;;;5486894;26;20002;-54
2024/04/12 11:50:13;;;;;;;0.55;0.55;;;20.20;99.90;;;;;;5487260;26;19998;-50
2024/04/12 11:52:39;;;;;;;0.50;0.50;;;20.00;99.90;;;;;;5487318;26;20004;-53
2024/04/12 11:55:06;;;;;;;2.13;1.00;;;19.90;99.90;;;;;;5486723;26;20354;-54
2024/04/12 11:57:36;;;;;;;0.93;0.65;;;19.80;99.90;;;;;;5485646;26;20023;-51
2024/04/12 12:00:08;;;;;;;0.73;0.50;;;19.90;99.90;;;;;;5485791;26;20337;-51
2024/04/12 12:02:42;;;;;;;2.05;0.55;;;20.00;99.90;;;;;;5484049;26;20006;-51
2024/04/12 12:05:08;;;;;;;0.50;0.50;;;20.10;99.90;;;;;;5483944;26;20069;-52
2024/04/12 12:07:34;;;;;;;3.92;0.68;;;20.00;99.90;;;;;;5485661;26;20067;-54
2024/04/12 12:10:03;;;;;;;0.40;0.40;;;20.10;99.90;;;;;;5485854;26;20374;-50
2024/04/12 12:12:30;;;;;;;0.55;0.50;;;20.20;99.90;;;;;;5486123;26;19994;-50
2024/04/12 12:14:56;;;;;;;0.55;0.52;;;20.20;99.90;;;;;;5485444;26;19994;-52
2024/04/12 12:17:21;;;;;;;2.15;0.60;;;20.30;99.90;;;;;;5483928;26;20013;-52
2024/04/12 12:19:51;;;;;;;0.75;0.63;;;20.40;99.90;;;;;;5485402;26;20009;-48
2024/04/12 12:22:18;;;;;;;1.55;0.57;;;20.50;99.90;;;;;;5489612;26;20018;-48
2024/04/12 12:24:44;;;;;;;0.73;0.70;;;20.40;99.90;;;;;;5487923;26;19998;-49
2024/04/12 12:27:10;;;;;;;2.75;1.42;;;20.50;99.90;;;;;;5489542;26;20026;-46
2024/04/12 12:29:37;;;;;;;1.77;0.90;;;20.30;99.90;;;;;;5487009;26;19998;-49
2024/04/12 12:32:04;;;;;;;6.22;4.90;;;20.20;99.90;;;;;;5489190;26;20006;-52
2024/04/12 12:34:29;;;;;;;0.77;0.77;;;20.30;99.90;;;;;;5489181;26;20009;-50
2024/04/12 12:36:59;;;;;;;0.93;0.90;;;20.40;99.90;;;;;;5489337;26;19998;-56
2024/04/12 12:39:31;;;;;;;1.67;0.73;;;20.40;99.90;;;;;;5488824;26;19998;-55
2024/04/12 12:42:09;;;;;;;6.80;0.80;;;20.40;99.90;;;;;;5489303;26;20049;-52
2024/04/12 12:44:36;;;;;;;0.32;0.30;;;20.30;99.90;;;;;;5489159;26;19998;-55
2024/04/12 12:47:02;;;;;;;2.65;1.17;;;20.30;99.90;;;;;;5489222;26;20050;-50
2024/04/12 12:49:39;;;;;;;0.98;0.60;;;20.60;99.90;;;;;;5488827;26;20322;-50
2024/04/12 12:52:11;;;;;;;1.38;0.63;;;20.40;99.90;;;;;;5489291;26;20205;-54
2024/04/12 12:54:43;;;;;;;0.55;0.55;;;20.50;99.90;;;;;;5489452;26;20349;-53
2024/04/12 12:57:10;;;;;;;2.75;0.80;;;20.50;99.90;;;;;;5489117;26;19994;-51
2024/04/12 12:59:42;;;;;;;0.65;0.65;;;20.70;99.90;;;;;;5488669;26;19994;-51
2024/04/12 13:02:13;;;;;;;1.73;0.57;;;20.70;99.90;;;;;;5487089;26;20103;-53
2024/04/12 13:04:39;;;;;;;4.28;0.70;;;20.70;99.90;;;;;;5486637;26;20487;-54
2024/04/12 13:07:07;;;;;;;1.55;0.82;;;20.70;99.90;;;;;;5488703;26;19994;-50
2024/04/12 13:09:35;;;;;;;2.15;0.98;;;20.80;99.90;;;;;;5488571;26;20026;-50
2024/04/12 13:12:03;;;;;;;1.00;0.73;;;20.90;99.90;;;;;;5488737;26;20454;-51
2024/04/12 13:14:29;;;;;;;0.80;0.80;;;20.90;99.90;;;;;;5488937;26;20009;-53
2024/04/12 13:16:54;;;;;;;3.72;0.77;;;20.90;99.90;;;;;;5488870;26;19998;-51
2024/04/12 13:19:21;;;;;;;1.48;1.20;;;20.80;99.90;;;;;;5489299;26;20009;-51
2024/04/12 13:21:48;;;;;;;1.02;0.88;;;20.70;99.90;;;;;;5488664;26;20005;-53
2024/04/12 13:24:14;;;;;;;2.03;0.90;;;20.50;99.90;;;;;;5488713;26;20353;-50
2024/04/12 13:26:50;;;;;;;1.13;0.80;;;20.50;99.90;;;;;;5488450;26;19994;-51
2024/04/12 13:29:20;;;;;;;2.88;1.00;;;20.60;99.90;;;;;;5488162;26;20022;-51
2024/04/12 13:31:50;;;;;;;1.05;0.90;;;20.50;99.90;;;;;;5488650;26;20025;-49
2024/04/12 13:34:17;;;;;;;0.60;0.60;;;20.50;99.90;;;;;;5488125;26;20009;-50
2024/04/12 13:36:43;;;;;;;1.63;0.70;;;20.80;99.90;;;;;;5488745;26;20066;-51
2024/04/12 13:39:13;;;;;;;0.73;0.73;;;20.90;99.90;;;;;;5488409;26;20029;-50
2024/04/12 13:41:43;;;;;;;0.88;0.88;;;21.10;99.90;;;;;;5488672;26;20002;-50
2024/04/12 13:44:08;;;;;;;1.30;0.82;;;21.10;99.90;;;;;;5489024;26;19991;-53
2024/04/12 13:52:09;;;;;;;1.70;1.45;;;21.10;99.90;;;;;;5472801;26;20001;-52
2024/04/12 13:54:37;;;;;;;42.53;32.15;;;21.20;99.90;;;;;;5489112;26;19994;-50
2024/04/12 13:57:04;;;;;;;13.15;10.88;;;21.30;99.90;;;;;;5488335;26;20018;-49
2024/04/12 13:59:33;;;;;;;2.13;1.92;;;21.30;99.90;;;;;;5488128;26;19994;-52
2024/04/12 14:01:59;;;;;;;1.25;0.80;;;21.20;99.90;;;;;;5486211;26;19994;-46
2024/04/12 14:04:27;;;;;;;1.05;0.93;;;21.20;99.90;;;;;;5486166;26;20331;-50
2024/04/12 14:06:53;;;;;;;1.73;1.30;;;21.20;99.90;;;;;;5486131;26;20043;-50
2024/04/12 14:09:21;;;;;;;0.95;0.95;;;21.10;99.90;;;;;;5487442;26;19994;-50
2024/04/12 14:11:49;;;;;;;2.20;1.05;;;21.00;99.90;;;;;;5488054;26;20354;-49
2024/04/12 14:14:20;;;;;;;0.98;0.95;;;21.00;99.90;;;;;;5488028;26;19997;-48